| time (UTC) | temp F | wind direction | speed MPH | gust MPH | rain 1hr in | rain 24hr in | rain mn in | humidity % | barometer mb |
| 20260509011815 | 59 | 187 | 0.0 | 0.0 | 0.00 | 0.00 | 0.00 | 86 | 1015.0 |
| 20260509011312 | 59 | 187 | 0.0 | 0.0 | 0.00 | 0.00 | 0.00 | 87 | 1015.1 |
| 20260509010810 | 59 | 187 | 0.0 | 0.0 | 0.00 | 0.00 | 0.00 | 84 | 1015.0 |
| 20260509010307 | 59 | 187 | 0.0 | 0.0 | 0.00 | 0.00 | 0.00 | 83 | 1014.8 |
| 20260509005804 | 59 | 187 | 0.0 | 0.0 | 0.00 | 0.00 | 0.00 | 85 | 1015.0 |
| 20260509005306 | 59 | 187 | 0.0 | 0.0 | 0.00 | 0.00 | 0.00 | 83 | 1015.0 |
| 20260509004801 | 59 | 187 | 0.0 | 0.0 | 0.00 | 0.00 | 0.00 | 83 | 1015.1 |
| 20260509004258 | 60 | 187 | 0.0 | 0.0 | 0.00 | 0.00 | 0.00 | 81 | 1014.7 |
| 20260509003756 | 60 | 187 | 0.0 | 0.0 | 0.00 | 0.00 | 0.00 | 83 | 1014.9 |
| 20260509003254 | 60 | 187 | 0.0 | 0.0 | 0.00 | 0.00 | 0.00 | 81 | 1014.9 |
| 20260509002751 | 60 | 187 | 0.0 | 0.0 | 0.00 | 0.00 | 0.00 | 80 | 1014.7 |
| 20260509002248 | 60 | 187 | 0.0 | 0.0 | 0.00 | 0.00 | 0.00 | 79 | 1015.0 |
| 20260509001746 | 60 | 187 | 0.0 | 0.0 | 0.00 | 0.00 | 0.00 | 79 | 1014.9 |
| 20260509001241 | 61 | 187 | 0.0 | 0.0 | 0.00 | 0.00 | 0.00 | 79 | 1015.0 |
| 20260509000739 | 61 | 187 | 0.0 | 0.0 | 0.00 | 0.00 | 0.00 | 78 | 1014.8 |
| 20260509000236 | 61 | 187 | 0.0 | 0.0 | 0.00 | 0.00 | 0.00 | 79 | 1014.9 |
| 20260508235733 | 62 | 187 | 0.0 | 0.0 | 0.00 | 0.00 | 0.00 | 79 | 1014.9 |
| 20260508235230 | 62 | 187 | 0.0 | 0.0 | 0.00 | 0.00 | 0.00 | 77 | 1015.0 |
| 20260508234727 | 63 | 187 | 0.0 | 0.0 | 0.00 | 0.00 | 0.00 | 76 | 1014.6 |
| 20260508234224 | 63 | 187 | 0.0 | 0.0 | 0.00 | 0.00 | 0.00 | 75 | 1014.7 |
| 20260508233723 | 64 | 187 | 0.0 | 0.0 | 0.00 | 0.00 | 0.00 | 75 | 1014.8 |
| 20260508233221 | 64 | 187 | 0.0 | 0.0 | 0.00 | 0.00 | 0.00 | 72 | 1014.9 |
| 20260508232718 | 64 | 187 | 0.0 | 0.0 | 0.00 | 0.00 | 0.00 | 70 | 1014.9 |
| 20260508232214 | 65 | 187 | 0.0 | 0.0 | 0.00 | 0.00 | 0.00 | 69 | 1014.7 |
| 20260508231712 | 66 | 187 | 0.0 | 0.0 | 0.00 | 0.00 | 0.00 | 66 | 1014.7 |
| 20260508231209 | 66 | 187 | 0.0 | 0.0 | 0.00 | 0.00 | 0.00 | 62 | 1014.5 |
| 20260508230706 | 66 | 187 | 0.0 | 1.0 | 0.00 | 0.00 | 0.00 | 64 | 1014.8 |
| 20260508230202 | 66 | 187 | 0.0 | 0.0 | 0.00 | 0.00 | 0.00 | 61 | 1014.9 |
| 20260508225700 | 66 | 187 | 0.0 | 1.0 | 0.00 | 0.00 | 0.00 | 61 | 1014.9 |
| 20260508225156 | 66 | 188 | 1.0 | 2.0 | 0.00 | 0.00 | 0.00 | 60 | 1014.7 |
| 20260508224654 | 66 | 172 | 1.0 | 1.0 | 0.00 | 0.00 | 0.00 | 61 | 1015.0 |
| 20260508224151 | 67 | 163 | 1.0 | 1.0 | 0.00 | 0.00 | 0.00 | 60 | 1014.8 |
| 20260508223649 | 67 | 153 | 1.0 | 3.0 | 0.00 | 0.00 | 0.00 | 59 | 1014.8 |
| 20260508223146 | 67 | 162 | 1.0 | 2.0 | 0.00 | 0.00 | 0.00 | 58 | 1014.8 |
| 20260508222643 | 67 | 172 | 1.0 | 1.0 | 0.00 | 0.00 | 0.00 | 58 | 1014.8 |
| 20260508222140 | 67 | 178 | 2.0 | 3.0 | 0.00 | 0.00 | 0.00 | 58 | 1015.0 |
| 20260508221636 | 67 | 198 | 2.0 | 3.0 | 0.00 | 0.00 | 0.00 | 57 | 1014.8 |
| 20260508221132 | 68 | 150 | 3.0 | 4.0 | 0.00 | 0.00 | 0.00 | 56 | 1014.8 |
| 20260508220629 | 68 | 203 | 2.0 | 3.0 | 0.00 | 0.00 | 0.00 | 57 | 1014.7 |
| 20260508220126 | 68 | 195 | 1.0 | 3.0 | 0.00 | 0.00 | 0.00 | 57 | 1014.8 |
| 20260508215622 | 68 | 167 | 0.0 | 2.0 | 0.00 | 0.00 | 0.00 | 55 | 1014.7 |
| 20260508215119 | 68 | 164 | 1.0 | 2.0 | 0.00 | 0.00 | 0.00 | 56 | 1014.6 |
| 20260508214616 | 68 | 183 | 2.0 | 2.0 | 0.00 | 0.00 | 0.00 | 54 | 1014.7 |
| 20260508214113 | 68 | 191 | 1.0 | 2.0 | 0.00 | 0.00 | 0.00 | 54 | 1014.5 |
| 20260508213610 | 68 | 197 | 2.0 | 2.0 | 0.00 | 0.00 | 0.00 | 53 | 1014.7 |
| 20260508213106 | 68 | 192 | 2.0 | 4.0 | 0.00 | 0.00 | 0.00 | 56 | 1014.8 |
| 20260508212602 | 68 | 173 | 1.0 | 3.0 | 0.00 | 0.00 | 0.00 | 55 | 1014.8 |
| 20260508212059 | 69 | 200 | 2.0 | 2.0 | 0.00 | 0.00 | 0.00 | 52 | 1014.7 |
| 20260508211554 | 69 | 176 | 1.0 | 2.0 | 0.00 | 0.00 | 0.00 | 54 | 1014.7 |
| 20260508211051 | 69 | 170 | 1.0 | 2.0 | 0.00 | 0.00 | 0.00 | 53 | 1014.7 |
| 20260508210547 | 69 | 177 | 1.0 | 3.0 | 0.00 | 0.00 | 0.00 | 52 | 1014.8 |
| 20260508210045 | 69 | 183 | 2.0 | 3.0 | 0.00 | 0.00 | 0.00 | 53 | 1014.7 |
| 20260508205542 | 69 | 173 | 2.0 | 3.0 | 0.00 | 0.00 | 0.00 | 50 | 1015.0 |
| 20260508205038 | 69 | 163 | 1.0 | 3.0 | 0.00 | 0.00 | 0.00 | 51 | 1015.0 |
| 20260508204535 | 69 | 158 | 2.0 | 3.0 | 0.00 | 0.00 | 0.00 | 49 | 1014.7 |
| 20260508204031 | 69 | 199 | 2.0 | 2.0 | 0.00 | 0.00 | 0.00 | 49 | 1014.9 |
| 20260508203527 | 69 | 193 | 2.0 | 4.0 | 0.00 | 0.00 | 0.00 | 47 | 1015.0 |
| 20260508203023 | 69 | 108 | 1.0 | 4.0 | 0.00 | 0.00 | 0.00 | 48 | 1015.0 |
| 20260508202520 | 70 | 183 | 3.0 | 4.0 | 0.00 | 0.00 | 0.00 | 49 | 1015.1 |
| 20260508202017 | 70 | 134 | 1.0 | 2.0 | 0.00 | 0.00 | 0.00 | 48 | 1015.1 |
| 20260508201514 | 70 | 141 | 2.0 | 2.0 | 0.00 | 0.00 | 0.00 | 48 | 1015.3 |
| 20260508201010 | 69 | 163 | 2.0 | 4.0 | 0.00 | 0.00 | 0.00 | 48 | 1015.1 |
| 20260508200508 | 70 | 173 | 2.0 | 6.0 | 0.00 | 0.00 | 0.00 | 48 | 1015.4 |
| 20260508200002 | 71 | 195 | 2.0 | 2.0 | 0.00 | 0.00 | 0.00 | 47 | 1015.4 |
| 20260508195500 | 70 | 177 | 1.0 | 3.0 | 0.00 | 0.00 | 0.00 | 49 | 1015.5 |
| 20260508194956 | 71 | 149 | 4.0 | 6.0 | 0.00 | 0.00 | 0.00 | 46 | 1015.4 |
| 20260508194453 | 71 | 127 | 5.0 | 7.0 | 0.00 | 0.00 | 0.00 | 47 | 1015.4 |
| 20260508193950 | 72 | 193 | 1.0 | 4.0 | 0.00 | 0.00 | 0.00 | 45 | 1015.4 |
| 20260508193447 | 72 | 138 | 0.0 | 2.0 | 0.00 | 0.00 | 0.00 | 46 | 1015.5 |
| 20260508192943 | 71 | 271 | 0.0 | 1.0 | 0.00 | 0.00 | 0.00 | 43 | 1015.6 |
| 20260508192440 | 70 | 250 | 1.0 | 3.0 | 0.00 | 0.00 | 0.00 | 42 | 1015.8 |
| 20260508191937 | 70 | 276 | 3.0 | 4.0 | 0.00 | 0.00 | 0.00 | 44 | 1016.0 |
| 20260508191435 | 71 | 146 | 4.0 | 4.0 | 0.00 | 0.00 | 0.00 | 44 | 1016.0 |
| 20260508190931 | 71 | 204 | 3.0 | 4.0 | 0.00 | 0.00 | 0.00 | 46 | 1016.0 |
| 20260508190428 | 71 | 115 | 4.0 | 6.0 | 0.00 | 0.00 | 0.00 | 44 | 1016.0 |
| 20260508185924 | 71 | 203 | 5.0 | 7.0 | 0.00 | 0.00 | 0.00 | 44 | 1016.2 |
| 20260508185422 | 71 | 173 | 1.0 | 4.0 | 0.00 | 0.00 | 0.00 | 42 | 1016.2 |
| 20260508184919 | 71 | 213 | 5.0 | 7.0 | 0.00 | 0.00 | 0.00 | 43 | 1016.1 |
| 20260508184416 | 70 | 253 | 4.0 | 6.0 | 0.00 | 0.00 | 0.00 | 46 | 1016.3 |
| 20260508183913 | 70 | 253 | 2.0 | 3.0 | 0.00 | 0.00 | 0.00 | 45 | 1016.3 |
| 20260508183410 | 70 | 139 | 1.0 | 4.0 | 0.00 | 0.00 | 0.00 | 45 | 1016.3 |
| 20260508182905 | 70 | 61 | 2.0 | 4.0 | 0.00 | 0.00 | 0.00 | 44 | 1016.5 |
| 20260508182402 | 71 | 146 | 4.0 | 9.0 | 0.00 | 0.00 | 0.00 | 43 | 1016.7 |
| 20260508181857 | 70 | 160 | 5.0 | 7.0 | 0.00 | 0.00 | 0.00 | 49 | 1016.8 |
| 20260508181355 | 70 | 165 | 4.0 | 7.0 | 0.00 | 0.00 | 0.00 | 43 | 1016.9 |
| 20260508180852 | 69 | 155 | 0.0 | 2.0 | 0.00 | 0.00 | 0.00 | 50 | 1016.6 |
| 20260508180349 | 70 | 166 | 2.0 | 9.0 | 0.00 | 0.00 | 0.00 | 46 | 1016.9 |
| 20260508175844 | 70 | 182 | 4.0 | 4.0 | 0.00 | 0.00 | 0.00 | 47 | 1016.9 |
| 20260508175341 | 69 | 38 | 2.0 | 2.0 | 0.00 | 0.00 | 0.00 | 47 | 1017.0 |
| 20260508174840 | 69 | 98 | 3.0 | 8.0 | 0.00 | 0.00 | 0.00 | 49 | 1017.1 |
| 20260508174336 | 70 | 100 | 2.0 | 8.0 | 0.00 | 0.00 | 0.00 | 45 | 1017.2 |
| 20260508173833 | 68 | 160 | 1.0 | 3.0 | 0.00 | 0.00 | 0.00 | 47 | 1017.4 |
| 20260508173330 | 68 | 175 | 4.0 | 6.0 | 0.00 | 0.00 | 0.00 | 46 | 1017.1 |
| 20260508172826 | 69 | 169 | 0.0 | 4.0 | 0.00 | 0.00 | 0.00 | 50 | 1017.2 |
| 20260508172323 | 69 | 126 | 5.0 | 7.0 | 0.00 | 0.00 | 0.00 | 46 | 1017.2 |
| 20260508171820 | 70 | 211 | 1.0 | 3.0 | 0.00 | 0.00 | 0.00 | 46 | 1017.5 |
| 20260508171316 | 69 | 109 | 1.0 | 3.0 | 0.00 | 0.00 | 0.00 | 46 | 1017.5 |
| 20260508170813 | 68 | 36 | 1.0 | 2.0 | 0.00 | 0.00 | 0.00 | 51 | 1017.6 |
| 20260508170311 | 67 | 67 | 2.0 | 3.0 | 0.00 | 0.00 | 0.00 | 53 | 1017.7 |
| 20260508165808 | 67 | 126 | 3.0 | 6.0 | 0.00 | 0.00 | 0.00 | 53 | 1017.7 |
| 20260508165306 | 68 | 145 | 1.0 | 2.0 | 0.00 | 0.00 | 0.00 | 49 | 1017.7 |
| 20260508164801 | 67 | 327 | 2.0 | 4.0 | 0.00 | 0.00 | 0.00 | 50 | 1017.9 |
| 20260508164257 | 66 | 207 | 2.0 | 3.0 | 0.00 | 0.00 | 0.00 | 51 | 1018.1 |
| 20260508163755 | 67 | 141 | 4.0 | 7.0 | 0.00 | 0.00 | 0.00 | 51 | 1018.0 |
| 20260508163253 | 68 | 122 | 5.0 | 6.0 | 0.00 | 0.00 | 0.00 | 48 | 1018.2 |
| 20260508162748 | 68 | 219 | 4.0 | 6.0 | 0.00 | 0.00 | 0.00 | 47 | 1018.2 |
| 20260508162245 | 67 | 326 | 1.0 | 1.0 | 0.00 | 0.00 | 0.00 | 47 | 1018.3 |
| 20260508161743 | 68 | 165 | 2.0 | 6.0 | 0.00 | 0.00 | 0.00 | 52 | 1018.3 |
| 20260508161240 | 67 | 57 | 2.0 | 2.0 | 0.00 | 0.00 | 0.00 | 51 | 1018.4 |
| 20260508160737 | 67 | 197 | 0.0 | 1.0 | 0.00 | 0.00 | 0.00 | 49 | 1018.6 |
| 20260508160236 | 67 | 162 | 2.0 | 6.0 | 0.00 | 0.00 | 0.00 | 51 | 1018.6 |
| 20260508155732 | 65 | 167 | 1.0 | 1.0 | 0.00 | 0.00 | 0.00 | 52 | 1018.6 |
| 20260508155229 | 65 | 111 | 2.0 | 4.0 | 0.00 | 0.00 | 0.00 | 52 | 1018.6 |
| 20260508154726 | 66 | 157 | 5.0 | 7.0 | 0.00 | 0.00 | 0.00 | 51 | 1018.4 |
| 20260508154223 | 66 | 244 | 4.0 | 6.0 | 0.00 | 0.00 | 0.00 | 50 | 1018.6 |
| 20260508153720 | 67 | 80 | 3.0 | 4.0 | 0.00 | 0.00 | 0.00 | 51 | 1018.5 |
| 20260508153217 | 67 | 34 | 2.0 | 3.0 | 0.00 | 0.00 | 0.00 | 51 | 1018.8 |
| 20260508152714 | 66 | 116 | 4.0 | 4.0 | 0.00 | 0.00 | 0.00 | 50 | 1019.0 |
| 20260508152209 | 66 | 166 | 1.0 | 7.0 | 0.00 | 0.00 | 0.00 | 50 | 1019.1 |
| 20260508151706 | 66 | 164 | 2.0 | 6.0 | 0.00 | 0.00 | 0.00 | 50 | 1018.8 |
| 20260508151203 | 66 | 180 | 5.0 | 6.0 | 0.00 | 0.00 | 0.00 | 51 | 1019.1 |
| 20260508150659 | 67 | 190 | 3.0 | 4.0 | 0.00 | 0.00 | 0.00 | 51 | 1019.1 |
| 20260508150156 | 68 | 166 | 1.0 | 1.0 | 0.00 | 0.00 | 0.00 | 52 | 1019.0 |
| 20260508145652 | 66 | 160 | 0.0 | 1.0 | 0.00 | 0.00 | 0.00 | 54 | 1018.9 |
| 20260508145148 | 65 | 162 | 0.0 | 2.0 | 0.00 | 0.00 | 0.00 | 54 | 1018.6 |
| 20260508144646 | 64 | 89 | 1.0 | 2.0 | 0.00 | 0.00 | 0.00 | 56 | 1018.8 |
| 20260508144143 | 64 | 33 | 3.0 | 4.0 | 0.00 | 0.00 | 0.00 | 54 | 1018.7 |
| 20260508143641 | 64 | 59 | 1.0 | 4.0 | 0.00 | 0.00 | 0.00 | 54 | 1018.8 |
| 20260508143137 | 65 | 80 | 3.0 | 4.0 | 0.00 | 0.00 | 0.00 | 58 | 1018.7 |
| 20260508142634 | 64 | 82 | 2.0 | 4.0 | 0.00 | 0.00 | 0.00 | 57 | 1018.7 |
| 20260508142131 | 64 | 115 | 1.0 | 3.0 | 0.00 | 0.00 | 0.00 | 60 | 1018.8 |
| 20260508141627 | 63 | 109 | 1.0 | 3.0 | 0.00 | 0.00 | 0.00 | 61 | 1018.8 |
| 20260508141125 | 63 | 152 | 1.0 | 4.0 | 0.00 | 0.00 | 0.00 | 61 | 1018.8 |
| 20260508140622 | 63 | 46 | 2.0 | 3.0 | 0.00 | 0.00 | 0.00 | 59 | 1018.9 |
| 20260508140119 | 62 | 119 | 2.0 | 3.0 | 0.00 | 0.00 | 0.00 | 67 | 1018.8 |
| 20260508135614 | 62 | 125 | 1.0 | 2.0 | 0.00 | 0.00 | 0.00 | 68 | 1019.3 |
| 20260508135110 | 62 | 100 | 4.0 | 4.0 | 0.00 | 0.00 | 0.00 | 67 | 1019.0 |
| 20260508134608 | 61 | 111 | 1.0 | 3.0 | 0.00 | 0.00 | 0.00 | 68 | 1019.4 |
| 20260508134104 | 61 | 80 | 1.0 | 2.0 | 0.00 | 0.00 | 0.00 | 71 | 1019.3 |
| 20260508133601 | 60 | 103 | 1.0 | 1.0 | 0.00 | 0.00 | 0.00 | 73 | 1019.3 |
| 20260508133059 | 60 | 89 | 0.0 | 1.0 | 0.00 | 0.00 | 0.00 | 73 | 1019.4 |
| 20260508132556 | 59 | 106 | 0.0 | 1.0 | 0.00 | 0.00 | 0.00 | 76 | 1019.2 |
| 20260508132053 | 58 | 5 | 0.0 | 2.0 | 0.00 | 0.00 | 0.00 | 76 | 1019.3 |
| 20260508131548 | 57 | 60 | 1.0 | 2.0 | 0.00 | 0.00 | 0.00 | 77 | 1019.4 |
| 20260508131045 | 57 | 119 | 1.0 | 1.0 | 0.00 | 0.00 | 0.00 | 78 | 1019.3 |
| 20260508130542 | 57 | 135 | 1.0 | 1.0 | 0.00 | 0.00 | 0.00 | 79 | 1019.2 |
| 20260508130039 | 56 | 81 | 1.0 | 1.0 | 0.00 | 0.00 | 0.00 | 80 | 1019.3 |
| 20260508125534 | 55 | 106 | 1.0 | 1.0 | 0.00 | 0.00 | 0.00 | 84 | 1019.2 |
| 20260508125032 | 55 | 39 | 1.0 | 2.0 | 0.00 | 0.00 | 0.00 | 83 | 1019.1 |
| 20260508124530 | 55 | 97 | 1.0 | 2.0 | 0.00 | 0.00 | 0.00 | 83 | 1019.0 |
| 20260508124027 | 55 | 85 | 0.0 | 1.0 | 0.00 | 0.00 | 0.00 | 83 | 1018.9 |
| 20260508123526 | 55 | 107 | 0.0 | 1.0 | 0.00 | 0.00 | 0.00 | 85 | 1018.6 |
| 20260508123022 | 54 | 352 | 0.0 | 2.0 | 0.00 | 0.00 | 0.00 | 84 | 1018.6 |
| 20260508122519 | 54 | 58 | 0.0 | 1.0 | 0.00 | 0.00 | 0.00 | 85 | 1018.5 |
| 20260508122016 | 53 | 93 | 0.0 | 0.0 | 0.00 | 0.00 | 0.00 | 87 | 1018.5 |
| 20260508121514 | 53 | 95 | 1.0 | 1.0 | 0.00 | 0.00 | 0.00 | 88 | 1018.4 |
| 20260508121012 | 53 | 94 | 0.0 | 1.0 | 0.00 | 0.00 | 0.00 | 91 | 1018.3 |
| 20260508120508 | 53 | 35 | 0.0 | 1.0 | 0.00 | 0.00 | 0.00 | 95 | 1018.2 |
| 20260508120007 | 53 | 160 | 0.0 | 0.0 | 0.00 | 0.00 | 0.00 | 97 | 1018.2 |
| 20260508115504 | 52 | 160 | 0.0 | 0.0 | 0.00 | 0.00 | 0.00 | 97 | 1018.3 |
| 20260508115000 | 51 | 160 | 0.0 | 0.0 | 0.00 | 0.00 | 0.00 | 97 | 1018.1 |
| 20260508114457 | 51 | 160 | 0.0 | 0.0 | 0.00 | 0.00 | 0.00 | 97 | 1018.2 |
| 20260508113954 | 50 | 160 | 0.0 | 0.0 | 0.00 | 0.00 | 0.00 | 97 | 1018.1 |
| 20260508113452 | 50 | 160 | 0.0 | 1.0 | 0.00 | 0.00 | 0.00 | 97 | 1018.0 |
| 20260508112949 | 49 | 160 | 0.0 | 0.0 | 0.00 | 0.00 | 0.00 | 97 | 1017.8 |
| 20260508112445 | 48 | 160 | 0.0 | 0.0 | 0.00 | 0.00 | 0.00 | 97 | 1017.8 |
| 20260508111942 | 48 | 160 | 0.0 | 0.0 | 0.00 | 0.00 | 0.00 | 97 | 1017.7 |
| 20260508111439 | 48 | 160 | 0.0 | 1.0 | 0.00 | 0.00 | 0.00 | 97 | 1017.6 |
| 20260508110936 | 48 | 160 | 0.0 | 0.0 | 0.00 | 0.00 | 0.00 | 97 | 1017.4 |
| 20260508110434 | 47 | 160 | 0.0 | 0.0 | 0.00 | 0.00 | 0.00 | 97 | 1017.2 |
| 20260508105933 | 47 | 160 | 0.0 | 0.0 | 0.00 | 0.00 | 0.00 | 97 | 1017.0 |
| 20260508105430 | 47 | 160 | 0.0 | 0.0 | 0.00 | 0.00 | 0.00 | 97 | 1017.1 |
| 20260508104927 | 47 | 160 | 0.0 | 0.0 | 0.00 | 0.00 | 0.00 | 97 | 1016.8 |
| 20260508104425 | 47 | 160 | 0.0 | 0.0 | 0.00 | 0.00 | 0.00 | 97 | 1016.8 |
| 20260508103921 | 48 | 160 | 0.0 | 0.0 | 0.00 | 0.00 | 0.00 | 97 | 1016.7 |
| 20260508103418 | 48 | 160 | 0.0 | 0.0 | 0.00 | 0.00 | 0.00 | 97 | 1016.6 |
| 20260508102915 | 48 | 160 | 0.0 | 0.0 | 0.00 | 0.00 | 0.00 | 97 | 1016.5 |
| 20260508102414 | 48 | 159 | 0.0 | 1.0 | 0.00 | 0.00 | 0.00 | 97 | 1016.6 |
| 20260508101911 | 48 | 160 | 0.0 | 0.0 | 0.00 | 0.00 | 0.00 | 97 | 1016.3 |
| 20260508101408 | 48 | 160 | 0.0 | 0.0 | 0.00 | 0.00 | 0.00 | 97 | 1016.2 |
| 20260508100905 | 48 | 160 | 0.0 | 0.0 | 0.00 | 0.00 | 0.00 | 96 | 1016.2 |
| 20260508100404 | 48 | 160 | 0.0 | 0.0 | 0.00 | 0.00 | 0.00 | 96 | 1016.3 |
| 20260508095859 | 48 | 160 | 0.0 | 0.0 | 0.00 | 0.00 | 0.00 | 96 | 1016.2 |
| 20260508095357 | 48 | 159 | 0.0 | 0.0 | 0.00 | 0.00 | 0.00 | 96 | 1016.1 |
| 20260508094854 | 48 | 160 | 0.0 | 0.0 | 0.00 | 0.00 | 0.00 | 96 | 1016.2 |
| 20260508094351 | 48 | 160 | 0.0 | 0.0 | 0.00 | 0.00 | 0.00 | 96 | 1016.0 |
| 20260508093848 | 48 | 160 | 0.0 | 0.0 | 0.00 | 0.00 | 0.00 | 96 | 1016.0 |
| 20260508093345 | 48 | 159 | 0.0 | 0.0 | 0.00 | 0.00 | 0.00 | 96 | 1015.8 |
| 20260508092843 | 48 | 160 | 0.0 | 0.0 | 0.00 | 0.00 | 0.00 | 96 | 1015.8 |
| 20260508092340 | 48 | 160 | 0.0 | 0.0 | 0.00 | 0.00 | 0.00 | 96 | 1015.7 |
| 20260508091838 | 49 | 159 | 0.0 | 0.0 | 0.00 | 0.00 | 0.00 | 96 | 1015.7 |
| 20260508091334 | 49 | 159 | 0.0 | 1.0 | 0.00 | 0.00 | 0.00 | 96 | 1015.9 |
| 20260508090832 | 49 | 161 | 0.0 | 0.0 | 0.00 | 0.00 | 0.00 | 96 | 1015.6 |
| 20260508090331 | 49 | 161 | 0.0 | 1.0 | 0.00 | 0.00 | 0.00 | 96 | 1015.5 |
| 20260508085826 | 49 | 161 | 0.0 | 0.0 | 0.00 | 0.00 | 0.00 | 96 | 1015.6 |
| 20260508085323 | 49 | 161 | 1.0 | 1.0 | 0.00 | 0.00 | 0.00 | 96 | 1015.5 |
| 20260508084820 | 49 | 145 | 0.0 | 1.0 | 0.00 | 0.00 | 0.00 | 96 | 1015.5 |
| 20260508084317 | 49 | 142 | 0.0 | 0.0 | 0.00 | 0.00 | 0.00 | 96 | 1015.4 |
| 20260508083814 | 49 | 143 | 0.0 | 0.0 | 0.00 | 0.00 | 0.00 | 96 | 1015.7 |
| 20260508083311 | 49 | 143 | 0.0 | 0.0 | 0.00 | 0.00 | 0.00 | 96 | 1015.2 |
| 20260508082811 | 49 | 143 | 0.0 | 0.0 | 0.00 | 0.00 | 0.00 | 96 | 1015.3 |
| 20260508082309 | 49 | 143 | 0.0 | 0.0 | 0.00 | 0.00 | 0.00 | 96 | 1015.5 |
| 20260508081806 | 49 | 125 | 0.0 | 1.0 | 0.00 | 0.00 | 0.00 | 96 | 1015.4 |
| 20260508081303 | 49 | 125 | 0.0 | 1.0 | 0.00 | 0.00 | 0.00 | 96 | 1015.4 |
| 20260508080800 | 49 | 125 | 0.0 | 0.0 | 0.00 | 0.00 | 0.00 | 96 | 1015.6 |
| 20260508080258 | 49 | 125 | 1.0 | 1.0 | 0.00 | 0.00 | 0.00 | 96 | 1015.5 |
| 20260508075754 | 49 | 125 | 0.0 | 0.0 | 0.00 | 0.00 | 0.00 | 96 | 1015.6 |
| 20260508075251 | 49 | 123 | 0.0 | 0.0 | 0.00 | 0.00 | 0.00 | 96 | 1015.3 |
| 20260508074749 | 49 | 140 | 0.0 | 0.0 | 0.00 | 0.00 | 0.00 | 96 | 1015.4 |
| 20260508074246 | 49 | 140 | 0.0 | 0.0 | 0.00 | 0.00 | 0.00 | 96 | 1015.4 |
| 20260508073743 | 49 | 140 | 0.0 | 0.0 | 0.00 | 0.00 | 0.00 | 95 | 1015.4 |
| 20260508073241 | 50 | 140 | 0.0 | 0.0 | 0.00 | 0.00 | 0.00 | 95 | 1015.5 |
| 20260508072737 | 50 | 141 | 0.0 | 0.0 | 0.00 | 0.00 | 0.00 | 95 | 1015.5 |
| 20260508072234 | 50 | 141 | 0.0 | 0.0 | 0.00 | 0.00 | 0.00 | 95 | 1015.5 |
| 20260508071731 | 50 | 141 | 0.0 | 0.0 | 0.00 | 0.00 | 0.00 | 95 | 1015.4 |
| 20260508071229 | 50 | 141 | 0.0 | 0.0 | 0.00 | 0.00 | 0.00 | 95 | 1015.7 |
| 20260508070726 | 50 | 141 | 0.0 | 0.0 | 0.00 | 0.00 | 0.00 | 95 | 1015.5 |
| 20260508070225 | 50 | 141 | 0.0 | 0.0 | 0.00 | 0.00 | 0.00 | 95 | 1015.7 |
| 20260508065722 | 50 | 141 | 0.0 | 0.0 | 0.00 | 0.00 | 0.00 | 95 | 1015.4 |
| 20260508065220 | 50 | 141 | 0.0 | 1.0 | 0.00 | 0.00 | 0.00 | 95 | 1015.4 |
| 20260508064717 | 50 | 141 | 0.0 | 1.0 | 0.00 | 0.00 | 0.00 | 95 | 1015.5 |
| 20260508064215 | 50 | 141 | 0.0 | 0.0 | 0.00 | 0.00 | 0.00 | 94 | 1015.6 |
| 20260508063712 | 50 | 141 | 0.0 | 1.0 | 0.00 | 0.00 | 0.00 | 94 | 1015.5 |
| 20260508063210 | 51 | 141 | 0.0 | 0.0 | 0.00 | 0.00 | 0.00 | 94 | 1015.5 |
| 20260508062707 | 51 | 141 | 0.0 | 1.0 | 0.00 | 0.00 | 0.00 | 94 | 1015.4 |
| 20260508062204 | 51 | 141 | 0.0 | 1.0 | 0.00 | 0.00 | 0.00 | 94 | 1015.3 |
| 20260508061701 | 51 | 141 | 0.0 | 1.0 | 0.00 | 0.00 | 0.00 | 94 | 1015.3 |
| 20260508061159 | 51 | 117 | 0.0 | 1.0 | 0.00 | 0.00 | 0.00 | 93 | 1015.2 |
| 20260508060655 | 51 | 117 | 0.0 | 0.0 | 0.00 | 0.00 | 0.00 | 93 | 1015.3 |
| 20260508060153 | 51 | 117 | 0.0 | 0.0 | 0.00 | 0.00 | 0.00 | 92 | 1015.6 |
| 20260508055648 | 51 | 117 | 0.0 | 0.0 | 0.00 | 0.00 | 0.00 | 92 | 1015.4 |
| 20260508055145 | 51 | 117 | 0.0 | 0.0 | 0.00 | 0.00 | 0.00 | 91 | 1015.5 |
| 20260508054641 | 51 | 117 | 0.0 | 1.0 | 0.00 | 0.00 | 0.00 | 90 | 1015.5 |
| 20260508054139 | 52 | 116 | 0.0 | 0.0 | 0.00 | 0.00 | 0.00 | 89 | 1015.4 |
| 20260508053636 | 53 | 135 | 0.0 | 1.0 | 0.00 | 0.00 | 0.00 | 88 | 1015.5 |
| 20260508053134 | 53 | 206 | 0.0 | 1.0 | 0.00 | 0.00 | 0.00 | 86 | 1015.5 |
| 20260508052631 | 54 | 206 | 0.0 | 1.0 | 0.00 | 0.00 | 0.00 | 84 | 1015.7 |
| 20260508052128 | 54 | 207 | 0.0 | 1.0 | 0.00 | 0.00 | 0.00 | 82 | 1015.5 |
| 20260508051624 | 55 | 207 | 1.0 | 1.0 | 0.00 | 0.00 | 0.00 | 81 | 1015.5 |
| 20260508051119 | 55 | 207 | 1.0 | 2.0 | 0.00 | 0.00 | 0.00 | 81 | 1015.4 |
| 20260508050615 | 56 | 235 | 0.0 | 1.0 | 0.00 | 0.00 | 0.00 | 80 | 1015.4 |
| 20260508050114 | 56 | 200 | 1.0 | 3.0 | 0.00 | 0.00 | 0.00 | 79 | 1015.5 |
| 20260508045609 | 56 | 183 | 0.0 | 1.0 | 0.00 | 0.00 | 0.00 | 77 | 1015.5 |
| 20260508045107 | 56 | 212 | 1.0 | 2.0 | 0.00 | 0.00 | 0.00 | 76 | 1015.4 |
| 20260508044604 | 56 | 233 | 1.0 | 1.0 | 0.00 | 0.00 | 0.00 | 77 | 1015.3 |
| 20260508044100 | 56 | 239 | 2.0 | 3.0 | 0.00 | 0.00 | 0.00 | 76 | 1015.6 |
| 20260508043557 | 56 | 222 | 1.0 | 3.0 | 0.00 | 0.00 | 0.00 | 76 | 1015.2 |
| 20260508043054 | 56 | 203 | 1.0 | 2.0 | 0.00 | 0.00 | 0.00 | 77 | 1015.2 |
| 20260508042551 | 55 | 202 | 1.0 | 1.0 | 0.00 | 0.00 | 0.00 | 79 | 1015.2 |
| 20260508042048 | 55 | 202 | 1.0 | 2.0 | 0.00 | 0.00 | 0.00 | 81 | 1015.1 |
| 20260508041545 | 55 | 201 | 0.0 | 1.0 | 0.00 | 0.00 | 0.00 | 81 | 1015.1 |
| 20260508041041 | 55 | 201 | 0.0 | 1.0 | 0.00 | 0.00 | 0.00 | 82 | 1015.1 |
| 20260508040538 | 55 | 201 | 0.0 | 2.0 | 0.00 | 0.00 | 0.00 | 82 | 1015.2 |
| 20260508040036 | 54 | 191 | 1.0 | 1.0 | 0.00 | 1.03 | 1.03 | 83 | 1015.0 |
| 20260508035532 | 54 | 188 | 0.0 | 1.0 | 0.00 | 1.03 | 1.03 | 85 | 1015.0 |
| 20260508035029 | 54 | 188 | 0.0 | 1.0 | 0.00 | 1.03 | 1.03 | 87 | 1015.0 |
| 20260508034526 | 54 | 188 | 0.0 | 0.0 | 0.00 | 1.03 | 1.03 | 87 | 1015.0 |
| 20260508034023 | 54 | 188 | 0.0 | 0.0 | 0.00 | 1.03 | 1.03 | 86 | 1015.1 |
| 20260508033521 | 55 | 188 | 0.0 | 0.0 | 0.00 | 1.03 | 1.03 | 84 | 1014.9 |
| 20260508033019 | 55 | 188 | 0.0 | 0.0 | 0.00 | 1.03 | 1.03 | 83 | 1014.9 |
| 20260508032515 | 55 | 188 | 0.0 | 0.0 | 0.00 | 1.03 | 1.03 | 84 | 1014.9 |
| 20260508032013 | 55 | 188 | 0.0 | 0.0 | 0.00 | 1.03 | 1.03 | 83 | 1015.2 |
| 20260508031510 | 56 | 188 | 0.0 | 0.0 | 0.00 | 1.03 | 1.03 | 82 | 1014.9 |
| 20260508031005 | 57 | 188 | 0.0 | 0.0 | 0.00 | 1.03 | 1.03 | 80 | 1015.1 |
| 20260508030503 | 57 | 188 | 0.0 | 2.0 | 0.00 | 1.03 | 1.03 | 78 | 1015.1 |
| 20260508030001 | 57 | 244 | 2.0 | 2.0 | 0.00 | 1.03 | 1.03 | 78 | 1015.2 |
| 20260508025456 | 57 | 105 | 0.0 | 0.0 | 0.00 | 1.03 | 1.03 | 78 | 1014.9 |
| 20260508024954 | 58 | 103 | 0.0 | 1.0 | 0.00 | 1.03 | 1.03 | 77 | 1014.8 |
| 20260508024449 | 59 | 102 | 1.0 | 2.0 | 0.00 | 1.03 | 1.03 | 73 | 1014.8 |
| 20260508023946 | 59 | 152 | 0.0 | 1.0 | 0.00 | 1.03 | 1.03 | 70 | 1014.8 |
| 20260508023443 | 60 | 217 | 0.0 | 2.0 | 0.00 | 1.03 | 1.03 | 69 | 1014.7 |
| 20260508022941 | 60 | 146 | 0.0 | 2.0 | 0.00 | 1.03 | 1.03 | 68 | 1014.8 |
| 20260508022436 | 60 | 247 | 2.0 | 2.0 | 0.00 | 1.03 | 1.03 | 69 | 1014.4 |
| 20260508021933 | 60 | 264 | 3.0 | 4.0 | 0.00 | 1.03 | 1.03 | 68 | 1014.1 |
| 20260508021429 | 60 | 263 | 0.0 | 4.0 | 0.00 | 1.03 | 1.03 | 68 | 1014.3 |
| 20260508020925 | 60 | 206 | 0.0 | 4.0 | 0.00 | 1.03 | 1.03 | 68 | 1014.2 |
| 20260508020423 | 60 | 231 | 2.0 | 6.0 | 0.00 | 1.03 | 1.03 | 69 | 1014.3 |
| 20260508015920 | 60 | 209 | 1.0 | 4.0 | 0.00 | 1.03 | 1.03 | 69 | 1014.3 |
| 20260508015418 | 61 | 259 | 0.0 | 1.0 | 0.00 | 1.03 | 1.03 | 68 | 1014.2 |
| 20260508014914 | 61 | 246 | 1.0 | 3.0 | 0.00 | 1.03 | 1.03 | 67 | 1014.2 |
| 20260508014412 | 61 | 209 | 2.0 | 4.0 | 0.00 | 1.03 | 1.03 | 66 | 1014.2 |
| 20260508013912 | 62 | 241 | 1.0 | 3.0 | 0.00 | 1.03 | 1.03 | 65 | 1014.2 |
| 20260508013408 | 62 | 286 | 3.0 | 4.0 | 0.00 | 1.03 | 1.03 | 65 | 1014.1 |
| 20260508012906 | 62 | 246 | 3.0 | 3.0 | 0.00 | 1.03 | 1.03 | 65 | 1013.8 |
| 20260508012403 | 62 | 211 | 1.0 | 4.0 | 0.00 | 1.03 | 1.03 | 65 | 1013.7 |